Time;durP1;ratioP1;P1;durP2;ratioP2;P2;SDS_P1;SDS_P2;PMS_P1;PMS_P2;Temp;Humidity;BMP_temperature;BMP_pressure;BME280_temperature;BME280_humidity;BME280_pressure;Samples;Min_cycle;Max_cycle;Signal;HPM_P1;HPM_P2
2022/01/07 00:01:54;;;;;;;4.88;1.70;;;5.90;99.90;;;;;;4975447;28;20217;-78
2022/01/07 00:04:20;;;;;;;9.15;1.88;;;5.80;99.90;;;;;;4975759;28;20224;-78
2022/01/07 00:06:46;;;;;;;8.15;2.22;;;5.90;99.90;;;;;;4974413;28;20228;-79
2022/01/07 00:09:11;;;;;;;5.10;1.42;;;5.70;99.90;;;;;;4975173;28;20190;-79
2022/01/07 00:11:37;;;;;;;7.32;1.60;;;5.80;99.90;;;;;;4975445;28;20216;-78
2022/01/07 00:14:02;;;;;;;8.23;1.63;;;5.70;99.90;;;;;;4975792;28;20170;-79
2022/01/07 00:16:28;;;;;;;3.88;1.55;;;5.80;99.90;;;;;;4975382;28;20253;-78
2022/01/07 00:18:56;;;;;;;4.07;1.63;;;5.90;99.90;;;;;;4975210;28;20256;-78
2022/01/07 00:21:22;;;;;;;5.03;1.92;;;6.00;99.90;;;;;;4975163;28;20170;-78
2022/01/07 00:23:47;;;;;;;5.38;1.73;;;5.90;99.90;;;;;;4975068;28;20212;-79
2022/01/07 00:26:13;;;;;;;14.25;1.58;;;6.00;99.90;;;;;;4974990;28;20539;-78
2022/01/07 00:28:38;;;;;;;5.30;1.40;;;6.00;99.90;;;;;;4974909;28;20166;-78
2022/01/07 00:31:04;;;;;;;4.63;2.10;;;6.10;99.90;;;;;;4974874;28;20702;-78
2022/01/07 00:33:29;;;;;;;4.15;1.75;;;6.10;99.90;;;;;;4974923;28;20243;-78
2022/01/07 00:35:56;;;;;;;6.30;2.08;;;6.10;99.90;;;;;;4974993;28;20169;-78
2022/01/07 00:38:23;;;;;;;7.15;2.20;;;5.90;99.90;;;;;;4975251;28;20209;-78
2022/01/07 00:40:49;;;;;;;3.05;1.63;;;6.00;99.90;;;;;;4974920;28;20252;-78
2022/01/07 00:43:14;;;;;;;5.35;1.95;;;5.90;99.90;;;;;;4975001;28;20619;-78
2022/01/07 00:45:40;;;;;;;5.47;1.75;;;5.90;99.90;;;;;;4974935;28;20206;-83
2022/01/07 00:48:06;;;;;;;4.05;1.80;;;6.00;99.90;;;;;;4974946;28;20587;-78
2022/01/07 00:50:32;;;;;;;3.42;2.08;;;6.00;99.90;;;;;;4974519;28;20201;-79
2022/01/07 00:52:59;;;;;;;4.65;2.05;;;6.10;99.90;;;;;;4974880;28;20223;-78
2022/01/07 00:55:26;;;;;;;6.15;2.92;;;6.10;99.90;;;;;;4974621;28;20169;-78
2022/01/07 00:57:53;;;;;;;6.30;2.92;;;6.00;99.90;;;;;;4989685;28;20178;-79
2022/01/07 01:00:21;;;;;;;6.50;2.47;;;5.90;99.90;;;;;;4974689;28;20201;-78
2022/01/07 01:02:47;;;;;;;6.32;2.33;;;5.80;99.90;;;;;;4974468;28;20177;-78
2022/01/07 01:05:14;;;;;;;7.75;2.22;;;6.00;99.90;;;;;;4973997;28;20702;-80
2022/01/07 01:07:42;;;;;;;9.27;2.08;;;6.00;99.90;;;;;;4974431;28;20174;-82
2022/01/07 01:10:09;;;;;;;7.32;1.65;;;5.90;99.90;;;;;;4974433;28;20178;-78
2022/01/07 01:12:35;;;;;;;8.40;1.95;;;5.80;99.90;;;;;;4974240;28;20623;-78
2022/01/07 01:15:03;;;;;;;4.80;1.88;;;5.70;99.90;;;;;;4973879;28;20260;-82
2022/01/07 01:17:28;;;;;;;7.53;1.92;;;5.70;99.90;;;;;;4974160;28;20166;-78
2022/01/07 01:19:54;;;;;;;4.80;2.85;;;5.70;99.90;;;;;;4974141;28;20269;-78
2022/01/07 01:22:19;;;;;;;11.63;2.58;;;5.70;99.90;;;;;;4974331;28;20181;-78
2022/01/07 01:24:45;;;;;;;5.25;2.42;;;5.70;99.90;;;;;;4974081;28;20206;-78
2022/01/07 01:27:11;;;;;;;4.82;2.13;;;5.70;99.90;;;;;;4974020;28;20249;-78
2022/01/07 01:29:37;;;;;;;6.65;2.53;;;5.60;99.90;;;;;;4973768;28;20284;-78
2022/01/07 01:32:04;;;;;;;3.50;1.75;;;5.50;99.90;;;;;;4974066;28;20166;-79
2022/01/07 01:34:30;;;;;;;4.60;2.08;;;5.30;99.90;;;;;;4974061;28;20658;-78
2022/01/07 01:36:56;;;;;;;4.93;3.00;;;5.30;99.90;;;;;;4974750;28;20162;-77
2022/01/07 01:39:23;;;;;;;6.65;2.30;;;5.20;99.90;;;;;;4975259;28;20245;-77
2022/01/07 01:41:49;;;;;;;11.95;2.60;;;5.30;99.90;;;;;;4975437;28;20208;-78
2022/01/07 01:44:15;;;;;;;7.05;3.83;;;5.10;99.90;;;;;;4974629;28;20209;-82
2022/01/07 01:46:41;;;;;;;5.90;2.95;;;5.10;99.90;;;;;;4974362;28;20181;-78
2022/01/07 01:49:07;;;;;;;4.25;2.50;;;5.20;99.90;;;;;;4992908;28;20186;-78
2022/01/07 01:51:34;;;;;;;4.93;2.78;;;5.20;99.90;;;;;;4973852;28;20193;-77
2022/01/07 01:54:00;;;;;;;9.75;3.22;;;5.20;99.90;;;;;;4988278;28;20169;-82
2022/01/07 01:56:26;;;;;;;6.53;3.50;;;5.20;99.90;;;;;;4988557;28;20177;-78
2022/01/07 01:58:51;;;;;;;8.70;3.25;;;5.10;99.90;;;;;;4973947;28;20168;-81
2022/01/07 02:01:17;;;;;;;8.88;3.10;;;5.00;99.90;;;;;;4988829;28;20185;-77
2022/01/07 02:03:43;;;;;;;12.50;4.07;;;5.10;99.90;;;;;;4973855;28;20205;-78
2022/01/07 02:06:10;;;;;;;7.28;3.90;;;5.00;99.90;;;;;;4973785;28;20174;-78
2022/01/07 02:08:36;;;;;;;8.85;3.50;;;5.10;99.90;;;;;;4973723;28;20166;-82
2022/01/07 02:11:03;;;;;;;4.53;2.88;;;5.10;99.90;;;;;;4973408;28;20596;-80
2022/01/07 02:13:28;;;;;;;13.00;3.28;;;5.10;99.90;;;;;;4973561;28;20216;-79
2022/01/07 02:15:54;;;;;;;6.85;3.58;;;5.10;99.90;;;;;;4973555;28;20166;-82
2022/01/07 02:18:19;;;;;;;6.75;3.65;;;5.10;99.90;;;;;;4973521;28;20729;-79
2022/01/07 02:20:46;;;;;;;12.55;4.13;;;5.20;99.90;;;;;;4973431;28;20193;-78
2022/01/07 02:23:11;;;;;;;4.95;2.67;;;5.10;99.90;;;;;;4974672;28;20173;-78
2022/01/07 02:25:37;;;;;;;9.13;4.03;;;4.90;99.90;;;;;;4977012;28;20580;-79
2022/01/07 02:28:03;;;;;;;11.63;3.92;;;5.10;99.90;;;;;;4977599;28;20162;-82
2022/01/07 02:30:30;;;;;;;6.63;3.50;;;5.00;99.90;;;;;;4992663;28;20197;-78
2022/01/07 02:32:57;;;;;;;5.72;3.38;;;5.10;99.90;;;;;;4977414;28;20166;-77
2022/01/07 02:35:26;;;;;;;7.03;3.70;;;5.00;99.90;;;;;;4976946;28;20174;-77
2022/01/07 02:37:52;;;;;;;4.28;3.13;;;5.00;99.90;;;;;;4977075;28;20228;-78
2022/01/07 02:40:17;;;;;;;5.75;3.53;;;5.00;99.90;;;;;;4976857;28;20206;-78
2022/01/07 02:42:43;;;;;;;10.93;3.63;;;5.00;99.90;;;;;;4976069;28;20623;-82
2022/01/07 02:45:10;;;;;;;6.38;3.55;;;4.90;99.90;;;;;;4977336;28;20280;-82
2022/01/07 02:47:49;;;;;;;10.05;3.75;;;5.00;99.90;;;;;;4976864;28;20275;-83
2022/01/07 02:50:15;;;;;;;7.72;3.60;;;5.10;99.90;;;;;;4977069;28;20189;-77
2022/01/07 02:52:41;;;;;;;6.68;3.22;;;5.00;99.90;;;;;;4992398;28;20253;-81
2022/01/07 02:55:07;;;;;;;10.73;4.57;;;4.90;99.90;;;;;;4976861;28;20619;-78
2022/01/07 02:57:33;;;;;;;5.28;3.67;;;4.90;99.90;;;;;;4977537;28;20170;-83
2022/01/07 02:59:58;;;;;;;4.57;3.47;;;5.10;99.90;;;;;;4976189;28;20550;-78
2022/01/07 03:02:24;;;;;;;5.88;4.00;;;4.90;99.90;;;;;;4981064;28;20171;-81
2022/01/07 03:04:49;;;;;;;6.88;3.70;;;5.00;99.90;;;;;;4978957;28;20208;-77
2022/01/07 03:07:15;;;;;;;7.78;3.67;;;5.00;99.90;;;;;;4993028;28;20257;-78
2022/01/07 03:09:40;;;;;;;5.60;3.90;;;5.00;99.90;;;;;;4977744;28;20189;-82
2022/01/07 03:12:06;;;;;;;7.80;3.63;;;5.10;99.90;;;;;;4976943;28;20163;-78
2022/01/07 03:14:32;;;;;;;11.88;4.10;;;5.20;99.90;;;;;;4976828;28;20274;-81
2022/01/07 03:16:57;;;;;;;10.27;4.03;;;5.20;99.90;;;;;;4991485;28;20541;-82
2022/01/07 03:19:23;;;;;;;10.57;4.20;;;5.20;99.90;;;;;;4976544;28;20201;-77
2022/01/07 03:21:49;;;;;;;11.40;3.50;;;5.20;99.90;;;;;;4976504;28;20182;-78
2022/01/07 03:24:14;;;;;;;7.68;4.50;;;5.10;99.90;;;;;;4976358;28;20201;-78
2022/01/07 03:26:40;;;;;;;7.47;4.30;;;5.10;99.90;;;;;;4976149;28;20647;-82
2022/01/07 03:29:05;;;;;;;10.23;3.72;;;5.10;99.90;;;;;;4976542;28;20204;-78
2022/01/07 03:31:31;;;;;;;10.73;4.55;;;5.20;99.90;;;;;;4976370;28;20205;-78
2022/01/07 03:33:57;;;;;;;7.63;3.70;;;5.30;99.90;;;;;;4975850;28;20232;-77
2022/01/07 03:36:22;;;;;;;3.45;3.15;;;5.20;99.90;;;;;;4990965;28;20185;-78
2022/01/07 03:38:48;;;;;;;4.95;3.47;;;5.20;99.90;;;;;;4976311;28;20173;-78
2022/01/07 03:41:14;;;;;;;6.30;4.10;;;5.20;99.90;;;;;;4976005;28;20253;-78
2022/01/07 03:43:39;;;;;;;6.00;3.80;;;5.30;99.90;;;;;;4975994;28;20173;-82
2022/01/07 03:46:05;;;;;;;10.52;4.80;;;5.20;99.90;;;;;;4976212;28;20193;-78
2022/01/07 03:48:30;;;;;;;8.05;4.78;;;5.30;99.90;;;;;;4976113;28;20228;-78
2022/01/07 03:50:56;;;;;;;12.20;4.78;;;5.40;99.90;;;;;;4979685;28;20245;-77
2022/01/07 03:53:25;;;;;;;11.77;4.45;;;5.30;99.90;;;;;;4997355;28;20170;-78
2022/01/07 03:55:52;;;;;;;12.77;5.05;;;5.30;99.90;;;;;;4980422;28;20704;-78
2022/01/07 03:58:18;;;;;;;13.38;4.20;;;5.40;99.90;;;;;;4976131;28;20249;-78
2022/01/07 04:00:44;;;;;;;11.13;5.18;;;5.20;99.90;;;;;;4976081;28;20197;-82
2022/01/07 04:03:13;;;;;;;5.32;4.32;;;5.30;99.90;;;;;;4975798;28;20170;-82
2022/01/07 04:05:39;;;;;;;11.57;4.55;;;5.30;99.90;;;;;;4975670;28;20201;-78
2022/01/07 04:08:05;;;;;;;6.18;4.15;;;5.30;99.90;;;;;;4975767;28;20176;-78
2022/01/07 04:10:31;;;;;;;9.52;5.22;;;5.20;99.90;;;;;;4990374;28;20694;-82
2022/01/07 04:12:57;;;;;;;5.88;4.22;;;5.40;99.90;;;;;;4975285;28;20176;-78
2022/01/07 04:15:23;;;;;;;5.20;4.15;;;5.50;99.90;;;;;;4974327;28;20693;-77
2022/01/07 04:17:51;;;;;;;5.53;3.70;;;5.50;99.90;;;;;;4975664;28;20240;-79
2022/01/07 04:20:20;;;;;;;9.07;4.35;;;5.50;99.90;;;;;;4975345;28;20228;-78
2022/01/07 04:22:46;;;;;;;6.38;3.70;;;5.60;99.90;;;;;;4975318;28;20174;-79
2022/01/07 04:25:17;;;;;;;7.03;4.47;;;5.60;99.90;;;;;;4974887;28;20206;-78
2022/01/07 04:27:49;;;;;;;4.97;3.95;;;5.70;99.90;;;;;;4975064;28;20669;-79
2022/01/07 04:30:16;;;;;;;7.47;3.88;;;5.70;99.90;;;;;;4975121;28;20196;-78
2022/01/07 04:32:42;;;;;;;8.70;4.85;;;5.80;99.90;;;;;;4975027;28;20510;-78
2022/01/07 04:35:10;;;;;;;5.72;3.85;;;5.70;99.90;;;;;;4975162;28;20188;-78
2022/01/07 04:37:36;;;;;;;7.22;3.97;;;5.50;99.90;;;;;;4974715;28;20177;-78
2022/01/07 04:40:04;;;;;;;6.93;4.32;;;5.50;99.90;;;;;;4974843;28;20186;-79
2022/01/07 04:42:30;;;;;;;5.43;3.95;;;5.60;99.90;;;;;;4974927;28;20174;-82
2022/01/07 04:44:55;;;;;;;8.55;3.47;;;5.70;99.90;;;;;;4974704;28;20290;-78
2022/01/07 04:47:21;;;;;;;11.18;4.47;;;5.60;99.90;;;;;;4974213;28;20245;-79
2022/01/07 04:49:47;;;;;;;7.47;3.70;;;5.70;99.90;;;;;;4973897;28;20200;-79
2022/01/07 04:52:12;;;;;;;4.32;3.90;;;5.80;99.90;;;;;;4974544;28;20173;-79
2022/01/07 04:54:38;;;;;;;6.82;3.97;;;5.80;99.90;;;;;;4974533;28;20170;-82
2022/01/07 04:57:03;;;;;;;7.63;3.78;;;5.80;99.90;;;;;;4974435;28;20166;-79
2022/01/07 04:59:29;;;;;;;5.97;3.92;;;5.90;99.90;;;;;;4976429;28;20221;-78
2022/01/07 05:01:55;;;;;;;6.78;3.97;;;5.80;99.90;;;;;;4983017;28;20209;-78
2022/01/07 05:04:21;;;;;;;5.55;3.97;;;5.90;99.90;;;;;;4982976;28;20205;-78
2022/01/07 05:06:47;;;;;;;6.53;3.53;;;5.80;99.90;;;;;;4981132;28;20173;-79
2022/01/07 05:09:16;;;;;;;7.15;4.32;;;5.70;99.90;;;;;;4982014;28;20185;-79
2022/01/07 05:11:43;;;;;;;10.10;5.07;;;5.80;99.90;;;;;;4996204;28;20169;-80
2022/01/07 05:14:09;;;;;;;7.30;4.85;;;5.90;99.90;;;;;;4982974;28;20162;-83
2022/01/07 05:16:34;;;;;;;10.77;4.38;;;6.00;99.90;;;;;;4997002;28;20177;-78
2022/01/07 05:19:01;;;;;;;6.30;4.18;;;6.00;99.90;;;;;;4981974;28;20205;-78
2022/01/07 05:21:27;;;;;;;5.15;4.40;;;6.00;99.90;;;;;;4996840;28;20174;-78
2022/01/07 05:23:52;;;;;;;6.10;3.50;;;6.00;99.90;;;;;;4982082;28;20248;-77
2022/01/07 05:26:18;;;;;;;5.50;3.78;;;5.90;99.90;;;;;;4981896;28;20172;-78
2022/01/07 05:28:44;;;;;;;7.72;4.18;;;5.80;99.90;;;;;;4996554;28;20180;-78
2022/01/07 05:31:09;;;;;;;7.13;4.55;;;5.90;99.90;;;;;;4981212;28;20162;-82
2022/01/07 05:33:35;;;;;;;6.05;3.83;;;6.00;99.90;;;;;;4982085;28;20706;-78
2022/01/07 05:36:01;;;;;;;7.47;3.95;;;6.00;99.90;;;;;;4983213;28;20530;-79
2022/01/07 05:38:26;;;;;;;8.35;3.85;;;5.90;99.90;;;;;;4982065;28;20216;-78
2022/01/07 05:40:52;;;;;;;4.43;3.58;;;5.90;99.90;;;;;;4981348;28;20674;-78
2022/01/07 05:43:17;;;;;;;11.60;4.90;;;5.80;99.90;;;;;;4995293;28;20170;-79
2022/01/07 05:45:45;;;;;;;7.25;4.65;;;5.80;99.90;;;;;;4979393;28;20214;-77
2022/01/07 05:48:12;;;;;;;6.93;3.83;;;5.80;99.90;;;;;;4995218;28;20599;-80
2022/01/07 05:50:37;;;;;;;4.72;3.58;;;5.70;99.90;;;;;;4994315;28;20700;-79
2022/01/07 05:53:03;;;;;;;7.97;3.97;;;5.70;99.90;;;;;;4977844;28;20182;-78
2022/01/07 05:55:29;;;;;;;7.07;3.90;;;5.70;99.90;;;;;;4975035;28;20177;-79
2022/01/07 05:57:54;;;;;;;10.55;3.85;;;5.60;99.90;;;;;;4980208;28;20166;-78
2022/01/07 06:00:20;;;;;;;6.70;4.72;;;5.70;99.90;;;;;;4980725;28;20313;-79
2022/01/07 06:02:45;;;;;;;10.77;4.13;;;5.70;99.90;;;;;;4981277;28;20161;-83
2022/01/07 06:05:11;;;;;;;9.18;3.92;;;5.90;99.90;;;;;;4980379;28;20205;-79
2022/01/07 06:07:37;;;;;;;4.63;3.28;;;5.90;99.90;;;;;;4981068;28;20570;-77
2022/01/07 06:10:05;;;;;;;6.72;3.45;;;6.00;99.90;;;;;;4980771;28;20196;-79
2022/01/07 06:12:30;;;;;;;6.85;3.35;;;5.80;99.90;;;;;;4981496;28;20169;-78
2022/01/07 06:14:57;;;;;;;9.40;3.53;;;5.80;99.90;;;;;;4980437;28;20174;-78
2022/01/07 06:17:23;;;;;;;6.28;3.83;;;5.90;99.90;;;;;;4979890;28;20637;-78
2022/01/07 06:19:50;;;;;;;7.28;3.28;;;5.90;99.90;;;;;;4979132;28;20232;-78
2022/01/07 06:22:15;;;;;;;4.45;3.08;;;6.00;99.90;;;;;;4994546;28;20523;-78
2022/01/07 06:24:41;;;;;;;5.30;3.28;;;6.00;99.90;;;;;;4978674;28;20207;-80
2022/01/07 06:27:07;;;;;;;4.35;3.50;;;6.10;99.90;;;;;;4979030;28;20639;-79
2022/01/07 06:29:32;;;;;;;9.18;3.38;;;6.20;99.90;;;;;;5008296;28;20190;-78
2022/01/07 06:31:58;;;;;;;10.00;4.20;;;6.20;99.90;;;;;;4989730;28;20257;-79
2022/01/07 06:34:23;;;;;;;4.25;3.00;;;6.10;99.90;;;;;;4973452;28;20197;-77
2022/01/07 06:36:50;;;;;;;5.95;3.05;;;6.10;99.90;;;;;;4973573;28;20223;-78
2022/01/07 06:39:19;;;;;;;5.70;3.10;;;6.20;99.90;;;;;;4973379;28;20225;-79
2022/01/07 06:41:46;;;;;;;7.75;3.47;;;6.20;99.90;;;;;;4987660;28;20637;-79
2022/01/07 06:44:13;;;;;;;5.25;3.45;;;6.20;99.90;;;;;;4988547;28;20729;-78
2022/01/07 06:46:38;;;;;;;6.65;3.55;;;6.20;99.90;;;;;;4973134;28;20186;-78
2022/01/07 06:49:04;;;;;;;4.22;3.53;;;6.30;99.90;;;;;;4976878;28;20299;-78
2022/01/07 06:51:31;;;;;;;16.95;3.60;;;6.30;99.90;;;;;;4973135;28;20166;-79
2022/01/07 06:53:58;;;;;;;9.68;3.40;;;6.30;99.90;;;;;;4973066;28;20639;-79
2022/01/07 06:56:23;;;;;;;4.63;3.67;;;6.30;99.90;;;;;;4973214;28;20281;-78
2022/01/07 06:58:49;;;;;;;6.57;4.07;;;6.30;99.90;;;;;;4972660;28;20734;-78
2022/01/07 07:01:15;;;;;;;4.55;3.03;;;6.40;99.90;;;;;;4972762;28;20166;-79
2022/01/07 07:03:41;;;;;;;8.05;3.67;;;6.30;99.90;;;;;;4973095;28;20202;-83
2022/01/07 07:06:08;;;;;;;7.80;3.25;;;6.40;99.90;;;;;;4972981;28;20213;-80
2022/01/07 07:08:33;;;;;;;4.60;3.42;;;6.40;99.90;;;;;;4988225;28;20224;-80
2022/01/07 07:10:59;;;;;;;5.65;3.20;;;6.60;99.90;;;;;;4978187;28;20725;-79
2022/01/07 07:13:25;;;;;;;11.57;3.80;;;6.50;99.90;;;;;;4977399;28;20162;-78
2022/01/07 07:15:50;;;;;;;9.88;4.15;;;6.50;99.90;;;;;;4977016;28;20166;-79
2022/01/07 07:18:17;;;;;;;5.82;2.92;;;6.60;99.90;;;;;;4975891;28;20233;-81
2022/01/07 07:20:43;;;;;;;8.40;3.22;;;6.40;99.90;;;;;;4976514;28;20744;-81
2022/01/07 07:23:09;;;;;;;11.50;3.30;;;6.40;99.90;;;;;;4977117;28;20184;-81
2022/01/07 07:25:34;;;;;;;14.85;3.22;;;6.20;99.90;;;;;;4976648;28;20205;-79
2022/01/07 07:28:00;;;;;;;5.55;3.30;;;6.30;99.90;;;;;;4976488;28;20650;-80
2022/01/07 07:30:33;;;;;;;3.28;3.03;;;6.50;99.90;;;;;;4991036;28;20194;-79
2022/01/07 07:33:09;;;;;;;5.07;3.10;;;6.60;99.90;;;;;;4991600;28;20177;-80
2022/01/07 07:38:12;;;;;;;11.05;3.42;;;6.50;99.90;;;;;;4976821;28;20213;-79
2022/01/07 07:40:38;;;;;;;3.10;2.78;;;6.40;99.90;;;;;;4975919;28;20189;-80
2022/01/07 07:43:04;;;;;;;10.85;3.40;;;6.40;99.90;;;;;;4976085;28;20579;-79
2022/01/07 07:45:30;;;;;;;4.15;3.30;;;6.50;99.90;;;;;;4990980;28;20209;-80
2022/01/07 07:47:56;;;;;;;8.35;3.78;;;6.60;99.90;;;;;;4990454;28;20186;-80
2022/01/07 07:50:21;;;;;;;10.25;3.58;;;6.50;99.90;;;;;;4990465;28;20257;-80
2022/01/07 07:52:47;;;;;;;5.10;3.20;;;6.50;99.90;;;;;;4975669;28;20188;-80
2022/01/07 07:55:13;;;;;;;4.53;2.60;;;6.50;99.90;;;;;;4975392;28;20178;-79
2022/01/07 07:57:38;;;;;;;11.20;3.08;;;6.50;99.90;;;;;;4990583;28;20674;-79
2022/01/07 08:00:06;;;;;;;3.55;3.15;;;6.50;99.90;;;;;;4990621;28;20185;-83
2022/01/07 08:02:32;;;;;;;4.35;2.30;;;6.60;99.90;;;;;;4995310;28;20225;-82
2022/01/07 08:04:57;;;;;;;5.32;3.35;;;6.70;99.90;;;;;;4987595;28;20206;-81
2022/01/07 08:07:23;;;;;;;3.58;2.92;;;6.70;99.90;;;;;;4989488;28;20166;-81
2022/01/07 08:09:51;;;;;;;5.47;3.58;;;6.60;99.90;;;;;;4983616;28;20197;-78
2022/01/07 08:17:50;;;;;;;10.05;3.83;;;6.60;99.90;;;;;;4975380;28;20188;-77
2022/01/07 08:20:16;;;;;;;6.30;3.60;;;6.60;99.90;;;;;;4974316;28;20190;-76
2022/01/07 08:22:42;;;;;;;4.72;4.20;;;6.50;99.90;;;;;;4974760;28;20208;-76
2022/01/07 08:25:07;;;;;;;8.60;3.83;;;6.30;99.90;;;;;;4974564;28;20280;-77
2022/01/07 08:27:33;;;;;;;6.70;2.85;;;6.30;99.90;;;;;;4975059;28;20166;-80
2022/01/07 08:30:03;;;;;;;3.67;3.17;;;6.30;99.90;;;;;;4974994;28;20432;-90
2022/01/07 08:35:13;;;;;;;5.78;2.70;;;6.30;99.90;;;;;;4973693;28;20232;-76
2022/01/07 08:37:40;;;;;;;3.67;2.45;;;6.30;99.90;;;;;;4974820;28;20169;-76
2022/01/07 08:40:06;;;;;;;3.83;3.30;;;6.20;99.90;;;;;;4975038;28;20737;-76
2022/01/07 08:42:33;;;;;;;5.45;2.95;;;6.30;99.90;;;;;;4974344;28;20569;-77
2022/01/07 08:44:58;;;;;;;3.97;2.60;;;6.30;99.90;;;;;;4989490;28;20247;-81
2022/01/07 08:47:25;;;;;;;7.47;3.40;;;6.50;99.90;;;;;;4989519;28;20546;-83
2022/01/07 08:49:52;;;;;;;8.07;3.00;;;6.50;99.90;;;;;;4975398;28;20217;-80
2022/01/07 08:52:19;;;;;;;4.88;2.45;;;6.60;99.90;;;;;;4974794;28;20162;-78
2022/01/07 08:54:45;;;;;;;7.45;2.50;;;6.50;99.90;;;;;;4975096;28;20499;-77
2022/01/07 08:57:11;;;;;;;4.80;2.90;;;6.50;99.90;;;;;;4975331;28;20212;-77
2022/01/07 08:59:37;;;;;;;42.95;18.58;;;6.60;99.90;;;;;;4974455;28;20185;-78
2022/01/07 09:02:03;;;;;;;7.85;2.60;;;6.70;99.90;;;;;;4977333;28;20169;-77
2022/01/07 09:04:28;;;;;;;7.57;2.63;;;6.80;99.90;;;;;;4988761;28;20197;-78
2022/01/07 09:06:54;;;;;;;6.45;2.67;;;6.90;99.90;;;;;;4993970;28;20184;-77
2022/01/07 09:09:19;;;;;;;3.67;2.03;;;6.90;99.90;;;;;;4975000;28;20186;-78
2022/01/07 09:11:46;;;;;;;7.20;2.63;;;7.00;99.90;;;;;;4974863;28;20189;-78
2022/01/07 09:14:12;;;;;;;4.75;2.35;;;6.90;99.90;;;;;;4974577;28;20638;-77
2022/01/07 09:16:37;;;;;;;7.10;3.42;;;7.00;99.90;;;;;;4974644;28;20177;-78
2022/01/07 09:19:03;;;;;;;2.65;2.38;;;6.80;99.90;;;;;;4989125;28;20609;-78
2022/01/07 09:21:29;;;;;;;5.70;2.72;;;6.90;99.90;;;;;;4974099;28;20173;-78
2022/01/07 09:23:55;;;;;;;6.97;2.88;;;7.00;99.90;;;;;;4974208;28;20232;-77
2022/01/07 09:26:21;;;;;;;4.85;3.00;;;7.10;99.90;;;;;;4974152;28;20577;-83
2022/01/07 09:28:46;;;;;;;5.82;2.35;;;7.00;99.90;;;;;;4989206;28;20174;-78
2022/01/07 09:31:13;;;;;;;6.40;3.13;;;6.70;99.90;;;;;;4974140;28;20197;-78
2022/01/07 09:33:40;;;;;;;12.13;2.78;;;6.80;99.90;;;;;;4974095;28;20261;-78
2022/01/07 09:36:05;;;;;;;3.22;2.35;;;6.90;99.90;;;;;;4974052;28;20170;-79
2022/01/07 09:38:31;;;;;;;10.55;2.83;;;7.10;99.90;;;;;;4973894;28;20166;-78
2022/01/07 09:40:57;;;;;;;4.82;1.90;;;7.20;99.90;;;;;;4973683;28;20252;-78
2022/01/07 09:43:22;;;;;;;5.85;2.80;;;7.10;99.90;;;;;;4973703;28;20618;-78
2022/01/07 09:45:49;;;;;;;8.98;3.13;;;7.20;99.90;;;;;;4973679;28;20667;-78
2022/01/07 09:48:15;;;;;;;3.50;2.95;;;7.10;99.90;;;;;;4973252;28;20193;-83
2022/01/07 09:50:40;;;;;;;5.55;2.53;;;7.00;99.90;;;;;;4988540;28;20194;-83
2022/01/07 09:53:15;;;;;;;7.20;2.95;;;7.00;99.90;;;;;;4988974;28;20172;-82
2022/01/07 09:55:42;;;;;;;4.53;2.75;;;6.90;99.90;;;;;;4988838;28;20205;-83
2022/01/07 09:58:08;;;;;;;6.75;2.65;;;6.90;99.90;;;;;;4988806;28;20173;-82
2022/01/07 10:00:37;;;;;;;9.23;3.10;;;6.90;99.90;;;;;;4973857;28;20192;-83
2022/01/07 10:03:07;;;;;;;9.82;2.90;;;7.00;99.90;;;;;;4973905;28;20162;-79
2022/01/07 10:05:42;;;;;;;6.82;3.17;;;7.00;99.90;;;;;;4973603;28;20205;-80
2022/01/07 10:08:24;;;;;;;6.85;3.08;;;7.00;99.90;;;;;;4973837;28;20170;-78
2022/01/07 10:11:18;;;;;;;8.75;3.03;;;7.00;99.90;;;;;;4973939;28;20201;-79
2022/01/07 10:13:49;;;;;;;11.57;3.28;;;6.90;99.90;;;;;;4973862;28;20248;-78
2022/01/07 10:16:19;;;;;;;11.07;2.80;;;7.10;99.90;;;;;;4973413;28;20261;-78
2022/01/07 10:18:47;;;;;;;8.10;2.45;;;7.40;99.90;;;;;;4973302;28;20170;-81
2022/01/07 10:21:14;;;;;;;6.72;2.97;;;7.50;99.90;;;;;;4988438;28;20657;-78
2022/01/07 10:23:40;;;;;;;8.65;3.30;;;7.70;99.90;;;;;;4973598;28;20211;-79
2022/01/07 10:26:13;;;;;;;5.50;2.67;;;7.50;99.90;;;;;;4973041;28;20589;-81
2022/01/07 10:28:38;;;;;;;6.10;2.42;;;7.30;99.90;;;;;;4988185;28;20217;-79
2022/01/07 10:31:08;;;;;;;7.40;3.53;;;7.40;99.90;;;;;;4972955;28;20221;-79
2022/01/07 10:33:41;;;;;;;5.30;2.20;;;7.50;99.90;;;;;;4979603;28;20237;-81
2022/01/07 10:36:06;;;;;;;4.20;2.45;;;7.50;99.90;;;;;;4974059;28;20678;-77
2022/01/07 10:38:34;;;;;;;8.35;2.55;;;7.60;99.90;;;;;;4974634;28;20175;-78
2022/01/07 10:41:00;;;;;;;6.40;2.42;;;7.70;99.90;;;;;;4975325;28;20276;-78
2022/01/07 10:43:30;;;;;;;6.93;2.53;;;7.50;99.90;;;;;;4975241;28;20584;-79
2022/01/07 10:45:58;;;;;;;3.72;2.60;;;7.40;99.90;;;;;;4978822;28;20201;-79
2022/01/07 10:48:36;;;;;;;7.35;2.50;;;7.30;99.90;;;;;;4981404;28;20178;-81
2022/01/07 10:51:07;;;;;;;10.50;3.03;;;7.30;99.90;;;;;;4988417;28;20185;-78
2022/01/07 10:53:32;;;;;;;6.13;2.65;;;7.10;99.90;;;;;;4999957;28;20321;-81
2022/01/07 10:56:06;;;;;;;6.18;1.95;;;7.10;99.90;;;;;;5001087;28;20162;-81
2022/01/07 10:58:56;;;;;;;4.82;2.08;;;7.00;99.90;;;;;;4998327;28;20188;-78
2022/01/07 11:01:25;;;;;;;12.35;2.10;;;6.80;99.90;;;;;;4979442;28;20249;-78
2022/01/07 11:03:52;;;;;;;8.15;2.40;;;6.70;99.90;;;;;;4977416;28;20252;-78
2022/01/07 11:06:18;;;;;;;3.85;1.98;;;6.80;99.90;;;;;;4976833;28;20214;-77
2022/01/07 11:08:45;;;;;;;6.70;1.75;;;6.60;99.90;;;;;;4976168;28;20174;-78
2022/01/07 11:11:11;;;;;;;5.15;2.10;;;6.50;99.90;;;;;;4982878;28;20521;-78
2022/01/07 11:13:38;;;;;;;2.10;1.73;;;6.40;99.90;;;;;;4979362;28;20174;-79
2022/01/07 11:16:05;;;;;;;4.13;1.75;;;6.40;99.90;;;;;;4977849;28;20253;-76
2022/01/07 11:18:32;;;;;;;1.60;1.50;;;6.40;99.90;;;;;;4977496;28;20181;-77
2022/01/07 11:21:00;;;;;;;2.20;1.50;;;6.50;99.90;;;;;;4977351;28;20232;-78
2022/01/07 11:23:26;;;;;;;1.77;1.52;;;6.50;99.90;;;;;;4977479;28;20169;-78
2022/01/07 11:26:02;;;;;;;3.35;1.60;;;6.60;99.90;;;;;;4977009;28;20214;-77
2022/01/07 11:28:29;;;;;;;6.07;1.95;;;6.60;99.90;;;;;;4978088;28;20173;-78
2022/01/07 11:31:14;;;;;;;3.92;1.48;;;6.70;99.90;;;;;;4978222;28;20205;-78
2022/01/07 11:33:40;;;;;;;2.22;1.50;;;6.80;99.90;;;;;;4977139;28;20193;-78
2022/01/07 11:36:33;;;;;;;4.38;1.73;;;6.90;99.90;;;;;;4977605;28;20504;-78
2022/01/07 11:39:04;;;;;;;4.40;1.73;;;7.10;99.90;;;;;;4986212;28;20172;-78
2022/01/07 11:41:45;;;;;;;5.03;2.47;;;7.30;99.90;;;;;;4996785;28;20194;-77
2022/01/07 11:44:19;;;;;;;5.55;1.90;;;7.20;99.90;;;;;;4981252;28;20197;-78
2022/01/07 11:46:45;;;;;;;3.67;1.75;;;7.10;99.90;;;;;;4978871;28;20360;-78
2022/01/07 11:49:33;;;;;;;9.07;2.65;;;7.00;99.90;;;;;;4977909;28;20225;-78
2022/01/07 11:52:28;;;;;;;4.10;2.10;;;7.00;99.90;;;;;;4975664;28;20169;-77
2022/01/07 11:55:20;;;;;;;4.22;2.30;;;7.10;99.90;;;;;;4976739;28;20177;-78
2022/01/07 11:57:47;;;;;;;2.35;2.03;;;7.00;99.90;;;;;;4978432;28;20234;-79
2022/01/07 12:00:13;;;;;;;6.50;2.38;;;7.00;99.90;;;;;;4977726;28;20190;-78
2022/01/07 12:03:02;;;;;;;3.25;2.13;;;7.10;99.90;;;;;;4977627;28;20478;-78
2022/01/07 12:05:30;;;;;;;4.18;1.73;;;7.10;99.90;;;;;;4976290;28;20578;-78
2022/01/07 12:07:55;;;;;;;3.40;1.73;;;7.00;99.90;;;;;;4977197;28;20180;-78
2022/01/07 12:10:21;;;;;;;5.40;1.65;;;6.90;99.90;;;;;;4976407;28;20284;-84
2022/01/07 12:12:46;;;;;;;3.35;1.80;;;7.10;99.90;;;;;;4992011;28;20177;-77
2022/01/07 12:15:12;;;;;;;4.85;2.60;;;7.30;99.90;;;;;;4977224;28;20174;-79
2022/01/07 12:17:37;;;;;;;3.88;1.70;;;7.40;99.90;;;;;;4979653;28;20217;-78
2022/01/07 12:20:48;;;;;;;13.25;2.65;;;7.40;99.90;;;;;;4978503;28;20682;-77
2022/01/07 12:23:21;;;;;;;5.35;2.00;;;7.50;99.90;;;;;;4972394;28;20241;-87
2022/01/07 12:25:49;;;;;;;4.78;1.63;;;7.70;99.90;;;;;;5000281;28;20217;-86
2022/01/07 12:28:15;;;;;;;2.95;1.40;;;7.70;99.90;;;;;;4992987;28;20177;-84
2022/01/07 12:30:43;;;;;;;4.10;1.50;;;7.60;99.90;;;;;;4977702;28;20189;-79
2022/01/07 12:33:10;;;;;;;7.85;1.95;;;7.60;99.90;;;;;;4976036;28;20165;-85
2022/01/07 12:35:37;;;;;;;3.15;2.03;;;7.50;99.90;;;;;;4975113;28;20166;-86
2022/01/07 12:38:18;;;;;;;6.05;1.98;;;7.40;99.90;;;;;;4994329;28;20539;-81
2022/01/07 12:40:52;;;;;;;5.07;1.33;;;7.20;99.90;;;;;;4994202;28;20189;-81
2022/01/07 12:43:21;;;;;;;3.42;1.70;;;7.40;99.90;;;;;;4999683;28;20551;-85
2022/01/07 12:46:01;;;;;;;6.88;1.33;;;7.40;99.90;;;;;;4963692;28;20749;-84
2022/01/07 12:48:35;;;;;;;7.25;1.67;;;7.40;99.90;;;;;;4977376;28;20185;-83
2022/01/07 12:51:02;;;;;;;6.28;1.38;;;7.50;99.90;;;;;;4976352;28;20193;-85
2022/01/07 12:53:28;;;;;;;1.77;1.08;;;7.50;99.90;;;;;;4978307;28;20185;-86
2022/01/07 12:55:53;;;;;;;2.10;1.35;;;7.60;99.90;;;;;;4991411;28;20217;-84
2022/01/07 12:58:28;;;;;;;4.13;1.40;;;7.30;99.90;;;;;;4991022;28;20174;-85
2022/01/07 13:00:54;;;;;;;1.75;1.38;;;7.30;99.90;;;;;;4992846;28;20197;-83
2022/01/07 13:03:25;;;;;;;1.77;1.10;;;7.30;99.90;;;;;;4975834;28;20180;-79
2022/01/07 13:05:51;;;;;;;2.20;0.90;;;7.40;99.90;;;;;;4977509;28;20209;-85
2022/01/07 13:08:18;;;;;;;3.20;0.88;;;7.50;99.90;;;;;;4990550;28;20180;-79